Time;durP1;ratioP1;P1;durP2;ratioP2;P2;SDS_P1;SDS_P2;PMS_P1;PMS_P2;Temp;Humidity;BMP_temperature;BMP_pressure;BME280_temperature;BME280_humidity;BME280_pressure;Samples;Min_cycle;Max_cycle;Signal;HPM_P1;HPM_P2
2022/10/19 00:00:05;;;;;;;;;;;17.10;99.90;17.20;100220.00;;;;345904;28;91288;-92
2022/10/19 00:00:17;;;;;;;;;;;17.00;99.90;17.20;100221.00;;;;346314;28;83689;-92
2022/10/19 00:00:29;;;;;;;;;;;17.00;99.90;17.20;100214.00;;;;347254;28;90278;-92
2022/10/19 00:00:40;;;;;;;;;;;17.00;99.90;17.20;100223.00;;;;346398;28;83208;-93
2022/10/19 00:01:14;;;;;;;;;;;17.00;99.90;17.20;100214.00;;;;344460;28;92031;-93
2022/10/19 00:01:26;;;;;;;;;;;17.00;99.90;17.20;100215.00;;;;346250;28;83587;-93
2022/10/19 00:01:37;;;;;;;;;;;17.00;99.90;17.20;100222.00;;;;344296;28;91737;-92
2022/10/19 00:01:49;;;;;;;;;;;17.00;99.90;17.20;100213.00;;;;346304;28;83376;-93
2022/10/19 00:02:01;;;;;;;;;;;17.00;99.90;17.20;100220.00;;;;347133;28;91533;-92
2022/10/19 00:02:13;;;;;;;;;;;17.00;99.90;17.20;100221.00;;;;346242;28;83423;-93
2022/10/19 00:02:25;;;;;;;;;;;17.00;99.90;17.20;100216.00;;;;345717;28;90227;-92
2022/10/19 00:02:36;;;;;;;;;;;17.00;99.90;17.20;100217.00;;;;346232;28;83389;-93
2022/10/19 00:02:48;;;;;;;;;;;17.00;99.90;17.20;100213.00;;;;344510;28;91694;-93
2022/10/19 00:03:00;;;;;;;;;;;17.00;99.90;17.30;100219.00;;;;346096;28;83527;-93
2022/10/19 00:03:12;;;;;;;;;;;17.00;99.90;17.30;100227.00;;;;344419;28;91342;-92
2022/10/19 00:03:23;;;;;;;;;;;17.00;99.90;17.30;100223.00;;;;345012;28;83434;-93
2022/10/19 00:03:35;;;;;;;;;;;17.00;99.90;17.30;100219.00;;;;346028;28;91128;-93
2022/10/19 00:03:49;;;;;;;;;;;17.00;99.90;17.30;100218.00;;;;344947;28;83324;-92
2022/10/19 00:04:01;;;;;;;;;;;17.00;99.90;17.30;100218.00;;;;344487;28;90240;-93
2022/10/19 00:04:18;;;;;;;;;;;17.00;99.90;17.30;100216.00;;;;346275;28;83407;-92
2022/10/19 00:04:30;;;;;;;;;;;17.00;99.90;17.30;100221.00;;;;344449;28;90428;-93
2022/10/19 00:04:42;;;;;;;;;;;17.00;99.90;17.20;100215.00;;;;347675;28;82548;-92
2022/10/19 00:04:54;;;;;;;;;;;17.00;99.90;17.20;100220.00;;;;347220;28;90326;-93
2022/10/19 00:05:06;;;;;;;;;;;17.00;99.90;17.20;100223.00;;;;347412;28;83408;-92
2022/10/19 00:05:18;;;;;;;;;;;17.00;99.90;17.20;100219.00;;;;347154;28;91832;-93
2022/10/19 00:05:29;;;;;;;;;;;17.00;99.90;17.20;100217.00;;;;343423;28;82614;-92
2022/10/19 00:05:41;;;;;;;;;;;17.00;99.90;17.20;100219.00;;;;347165;28;91645;-93
2022/10/19 00:05:53;;;;;;;;;;;17.00;99.90;17.20;100214.00;;;;346346;28;82454;-93
2022/10/19 00:06:17;;;;;;;;;;;17.00;99.90;17.20;100222.00;;;;345804;28;91161;-93
2022/10/19 00:06:31;;;;;;;;;;;17.00;99.90;17.20;100224.00;;;;343437;28;82621;-93
2022/10/19 00:06:43;;;;;;;;;;;17.00;99.90;17.20;100222.00;;;;344504;28;90824;-93
2022/10/19 00:06:55;;;;;;;;;;;17.00;99.90;17.30;100223.00;;;;346205;28;83368;-92
2022/10/19 00:07:06;;;;;;;;;;;17.00;99.90;17.20;100223.00;;;;345773;28;91745;-93
2022/10/19 00:07:18;;;;;;;;;;;17.00;99.90;17.20;100218.00;;;;346133;28;83483;-93
2022/10/19 00:07:30;;;;;;;;;;;17.00;99.90;17.30;100219.00;;;;347161;28;91847;-93
2022/10/19 00:07:42;;;;;;;;;;;17.00;99.90;17.20;100218.00;;;;346272;28;83421;-93
2022/10/19 00:07:54;;;;;;;;;;;17.00;99.90;17.20;100222.00;;;;344174;28;90506;-93
2022/10/19 00:08:06;;;;;;;;;;;17.00;99.90;17.10;100218.00;;;;344624;28;83513;-93
2022/10/19 00:08:17;;;;;;;;;;;17.00;99.90;17.10;100226.00;;;;345832;28;91668;-93
2022/10/19 00:08:29;;;;;;;;;;;17.00;99.90;17.20;100224.00;;;;344876;28;82847;-93
2022/10/19 00:08:41;;;;;;;;;;;17.00;99.90;17.20;100227.00;;;;345765;28;89139;-93
2022/10/19 00:08:57;;;;;;;;;;;17.00;99.90;17.30;100220.00;;;;346309;28;82451;-93
2022/10/19 00:09:16;;;;;;;;;;;17.00;99.90;17.20;100211.00;;;;345873;28;91436;-92
2022/10/19 00:09:28;;;;;;;;;;;17.00;99.90;17.20;100224.00;;;;346156;28;83386;-93
2022/10/19 00:09:42;;;;;;;;;;;17.00;99.90;17.20;100227.00;;;;348364;27;92497;-92
2022/10/19 00:09:54;;;;;;;;;;;17.00;99.90;17.10;100224.00;;;;346399;28;82541;-93
2022/10/19 00:10:05;;;;;;;;;;;17.00;99.90;17.10;100221.00;;;;345754;28;91355;-92
2022/10/19 00:10:17;;;;;;;;;;;17.00;99.90;17.10;100212.00;;;;346230;28;83577;-92
2022/10/19 00:10:29;;;;;;;;;;;17.00;99.90;17.10;100221.00;;;;342930;28;90649;-92
2022/10/19 00:10:41;;;;;;;;;;;16.90;99.90;17.10;100221.00;;;;343589;28;83511;-93
2022/10/19 00:10:52;;;;;;;;;;;17.00;99.90;17.10;100226.00;;;;344433;28;91557;-92
2022/10/19 00:11:04;;;;;;;;;;;16.90;99.90;17.10;100224.00;;;;345004;28;83259;-93
2022/10/19 00:11:16;;;;;;;;;;;17.00;99.90;17.10;100222.00;;;;343182;28;91273;-93
2022/10/19 00:11:28;;;;;;;;;;;16.90;99.90;17.10;100228.00;;;;344875;28;83350;-93
2022/10/19 00:11:41;;;;;;;;;;;16.90;99.90;17.10;100222.00;;;;345670;28;92351;-93
2022/10/19 00:11:53;;;;;;;;;;;16.90;99.90;17.10;100232.00;;;;346300;28;83447;-93
2022/10/19 00:12:05;;;;;;;;;;;16.90;99.90;17.10;100215.00;;;;345948;28;91822;-92
2022/10/19 00:12:17;;;;;;;;;;;16.90;99.90;17.10;100227.00;;;;344733;28;83461;-93
2022/10/19 00:12:29;;;;;;;;;;;16.90;99.90;17.20;100223.00;;;;347120;28;91508;-93
2022/10/19 00:12:40;;;;;;;;;;;16.90;99.90;17.20;100225.00;;;;343227;28;83552;-93
2022/10/19 00:12:52;;;;;;;;;;;16.90;99.90;17.30;100228.00;;;;345790;28;90542;-93
2022/10/19 00:13:04;;;;;;;;;;;16.90;99.90;17.20;100227.00;;;;344942;28;82439;-93
2022/10/19 00:13:16;;;;;;;;;;;16.90;99.90;17.20;100224.00;;;;344478;28;90704;-93
2022/10/19 00:13:28;;;;;;;;;;;17.00;99.90;17.20;100228.00;;;;346232;28;83411;-93
2022/10/19 00:13:39;;;;;;;;;;;16.90;99.90;17.20;100225.00;;;;345576;28;92400;-93
2022/10/19 00:13:51;;;;;;;;;;;16.90;99.90;17.20;100221.00;;;;343606;28;82507;-92
2022/10/19 00:14:03;;;;;;;;;;;16.90;99.90;17.20;100223.00;;;;347371;28;90702;-93
2022/10/19 00:14:22;;;;;;;;;;;16.90;99.90;17.20;100227.00;;;;346106;28;83475;-92
2022/10/19 00:14:33;;;;;;;;;;;16.90;99.90;17.20;100219.00;;;;344508;28;91348;-93
2022/10/19 00:14:45;;;;;;;;;;;16.90;99.90;17.20;100222.00;;;;349053;27;83534;-93
2022/10/19 00:14:57;;;;;;;;;;;16.90;99.90;17.20;100226.00;;;;346961;28;90162;-93
2022/10/19 00:15:09;;;;;;;;;;;16.90;99.90;17.20;100222.00;;;;346301;28;83388;-93
2022/10/19 00:15:20;;;;;;;;;;;16.90;99.90;17.10;100223.00;;;;347227;28;90476;-93
2022/10/19 00:15:32;;;;;;;;;;;16.90;99.90;17.20;100224.00;;;;346148;28;82542;-93
2022/10/19 00:15:44;;;;;;;;;;;16.90;99.90;17.10;100227.00;;;;348240;27;91636;-92
2022/10/19 00:15:56;;;;;;;;;;;16.90;99.90;17.10;100224.00;;;;348836;27;82619;-92
2022/10/19 00:16:12;;;;;;;;;;;16.90;99.90;17.10;100225.00;;;;344178;28;90304;-93
2022/10/19 00:16:26;;;;;;;;;;;16.90;99.90;17.00;100225.00;;;;345959;28;83579;-93
2022/10/19 00:16:38;;;;;;;;;;;16.90;99.90;17.00;100228.00;;;;342942;28;89570;-92
2022/10/19 00:16:51;;;;;;;;;;;16.90;99.90;17.00;100231.00;;;;346274;28;83472;-93
2022/10/19 00:17:02;;;;;;;;;;;16.90;99.90;17.00;100231.00;;;;344294;28;89554;-93
2022/10/19 00:17:14;;;;;;;;;;;16.90;99.90;17.00;100230.00;;;;347605;28;83385;-93
2022/10/19 00:17:26;;;;;;;;;;;16.90;99.90;17.00;100228.00;;;;345713;28;91351;-93
2022/10/19 00:17:37;;;;;;;;;;;16.90;99.90;17.00;100221.00;;;;346078;28;83523;-93
2022/10/19 00:17:49;;;;;;;;;;;16.90;99.90;17.10;100227.00;;;;345448;28;91501;-92
2022/10/19 00:18:01;;;;;;;;;;;16.90;99.90;17.10;100230.00;;;;346150;28;83613;-91
2022/10/19 00:18:12;;;;;;;;;;;16.90;99.90;17.10;100236.00;;;;345628;28;90645;-93
2022/10/19 00:18:24;;;;;;;;;;;16.90;99.90;17.10;100233.00;;;;346005;28;83578;-94
2022/10/19 00:18:36;;;;;;;;;;;16.90;99.90;17.10;100227.00;;;;343058;28;90322;-93
2022/10/19 00:18:47;;;;;;;;;;;16.90;99.90;17.00;100232.00;;;;349100;27;83391;-93
2022/10/19 00:19:00;;;;;;;;;;;16.90;99.90;17.10;100232.00;;;;345797;28;90293;-93
2022/10/19 00:19:15;;;;;;;;;;;16.90;99.90;17.00;100233.00;;;;344875;28;83413;-92
2022/10/19 00:19:27;;;;;;;;;;;16.90;99.90;17.00;100231.00;;;;344446;28;91635;-93
2022/10/19 00:19:39;;;;;;;;;;;16.80;99.90;17.10;100237.00;;;;346114;28;83631;-93
2022/10/19 00:19:51;;;;;;;;;;;16.80;99.90;17.10;100238.00;;;;344088;28;91518;-94
2022/10/19 00:20:03;;;;;;;;;;;16.90;99.90;17.10;100232.00;;;;344842;28;83409;-94
2022/10/19 00:20:14;;;;;;;;;;;16.80;99.90;17.00;100230.00;;;;346957;28;90805;-93
2022/10/19 00:20:26;;;;;;;;;;;16.90;99.90;17.00;100236.00;;;;347291;28;83505;-93
2022/10/19 00:20:38;;;;;;;;;;;16.90;99.90;17.00;100239.00;;;;348384;27;90707;-93
2022/10/19 00:20:50;;;;;;;;;;;16.90;99.90;17.00;100239.00;;;;344857;28;83493;-94
2022/10/19 00:21:03;;;;;;;;;;;16.90;99.90;17.00;100234.00;;;;344227;28;89573;-92
2022/10/19 00:21:17;;;;;;;;;;;16.80;99.90;17.00;100240.00;;;;344919;28;82682;-93
2022/10/19 00:21:29;;;;;;;;;;;16.80;99.90;17.00;100241.00;;;;345713;28;90036;-93
2022/10/19 00:21:41;;;;;;;;;;;16.80;99.90;17.00;100239.00;;;;347421;28;82665;-93
2022/10/19 00:21:53;;;;;;;;;;;16.80;99.90;17.00;100237.00;;;;345636;28;91544;-93
2022/10/19 00:22:05;;;;;;;;;;;16.80;99.90;17.00;100239.00;;;;346427;28;83311;-93
2022/10/19 00:22:20;;;;;;;;;;;16.80;99.90;17.00;100240.00;;;;345677;28;90725;-93
2022/10/19 00:22:32;;;;;;;;;;;16.80;99.90;17.00;100239.00;;;;347411;28;83488;-93
2022/10/19 00:22:44;;;;;;;;;;;16.80;99.90;17.00;100239.00;;;;344412;28;90048;-93
2022/10/19 00:22:56;;;;;;;;;;;16.80;99.90;17.00;100237.00;;;;347421;28;82628;-93
2022/10/19 00:23:07;;;;;;;;;;;16.80;99.90;17.00;100241.00;;;;347048;28;90895;-93
2022/10/19 00:23:20;;;;;;;;;;;16.80;99.90;17.00;100235.00;;;;346296;28;82531;-93
2022/10/19 00:23:32;;;;;;;;;;;16.80;99.90;17.00;100241.00;;;;345844;28;90326;-92
2022/10/19 00:23:44;;;;;;;;;;;16.80;99.90;17.00;100244.00;;;;346104;28;83525;-93
2022/10/19 00:23:56;;;;;;;;;;;16.80;99.90;17.00;100243.00;;;;347223;28;92153;-93
2022/10/19 00:24:08;;;;;;;;;;;16.80;99.90;17.00;100243.00;;;;347512;28;83626;-93
2022/10/19 00:24:20;;;;;;;;;;;16.80;99.90;17.00;100239.00;;;;344402;28;91488;-93
2022/10/19 00:24:31;;;;;;;;;;;16.80;99.90;17.00;100243.00;;;;346239;28;82397;-93
2022/10/19 00:24:43;;;;;;;;;;;16.80;99.90;17.00;100241.00;;;;344376;28;92100;-93
2022/10/19 00:24:56;;;;;;;;;;;16.80;99.90;16.90;100243.00;;;;346364;28;83230;-93
2022/10/19 00:25:08;;;;;;;;;;;16.80;99.90;16.90;100251.00;;;;345867;28;91273;-93
2022/10/19 00:25:20;;;;;;;;;;;16.80;99.90;16.90;100245.00;;;;346104;28;83993;-93
2022/10/19 00:25:35;;;;;;;;;;;16.80;99.90;16.90;100242.00;;;;347264;28;89942;-93
2022/10/19 00:25:55;;;;;;;;;;;16.80;99.90;16.90;100245.00;;;;343442;28;83466;-93
2022/10/19 00:26:06;;;;;;;;;;;16.70;99.90;16.90;100244.00;;;;345792;28;91183;-93
2022/10/19 00:26:18;;;;;;;;;;;16.70;99.90;16.90;100232.00;;;;346278;28;83387;-92
2022/10/19 00:26:30;;;;;;;;;;;16.70;99.90;16.90;100233.00;;;;344409;28;91659;-93
2022/10/19 00:26:42;;;;;;;;;;;16.70;99.90;17.00;100241.00;;;;344889;28;83435;-93
2022/10/19 00:26:54;;;;;;;;;;;16.70;99.90;17.00;100233.00;;;;345769;28;90962;-92
2022/10/19 00:27:05;;;;;;;;;;;16.70;99.90;17.00;100243.00;;;;346314;28;82453;-93
2022/10/19 00:27:17;;;;;;;;;;;16.70;99.90;17.00;100239.00;;;;343117;28;91083;-92
2022/10/19 00:27:29;;;;;;;;;;;16.70;99.90;16.90;100231.00;;;;343546;28;83429;-93
2022/10/19 00:27:41;;;;;;;;;;;16.70;99.90;17.00;100237.00;;;;342926;28;90995;-93
2022/10/19 00:27:52;;;;;;;;;;;16.70;99.90;16.90;100238.00;;;;347726;28;83421;-92
2022/10/19 00:28:04;;;;;;;;;;;16.70;99.90;16.90;100239.00;;;;348644;27;92210;-93
2022/10/19 00:28:16;;;;;;;;;;;16.70;99.90;16.90;100233.00;;;;346051;28;83570;-93
2022/10/19 00:28:28;;;;;;;;;;;16.70;99.90;16.90;100230.00;;;;347003;28;89968;-93
2022/10/19 00:28:40;;;;;;;;;;;16.70;99.90;16.90;100234.00;;;;346344;28;83493;-92
2022/10/19 00:28:53;;;;;;;;;;;16.70;99.90;16.90;100238.00;;;;344446;28;91807;-92
2022/10/19 00:29:05;;;;;;;;;;;16.70;99.90;16.90;100244.00;;;;346423;28;82390;-93
2022/10/19 00:29:17;;;;;;;;;;;16.70;99.90;16.90;100237.00;;;;343034;28;89653;-92
2022/10/19 00:29:29;;;;;;;;;;;16.70;99.90;16.90;100236.00;;;;344887;28;83332;-93
2022/10/19 00:29:40;;;;;;;;;;;16.70;99.90;16.90;100232.00;;;;345601;28;91624;-92
2022/10/19 00:29:52;;;;;;;;;;;16.70;99.90;17.00;100232.00;;;;346203;28;83459;-93
2022/10/19 00:30:04;;;;;;;;;;;16.70;99.90;16.90;100236.00;;;;348358;27;90395;-93
2022/10/19 00:30:16;;;;;;;;;;;16.70;99.90;16.90;100233.00;;;;347313;28;83540;-92
2022/10/19 00:30:28;;;;;;;;;;;16.70;99.90;17.00;100231.00;;;;348493;27;91754;-92
2022/10/19 00:30:40;;;;;;;;;;;16.70;99.90;16.90;100236.00;;;;347564;28;82618;-93
2022/10/19 00:30:52;;;;;;;;;;;16.70;99.90;16.90;100230.00;;;;345516;28;89685;-92
2022/10/19 00:31:04;;;;;;;;;;;16.70;99.90;16.80;100231.00;;;;346081;28;83580;-93
2022/10/19 00:31:16;;;;;;;;;;;16.70;99.90;16.80;100233.00;;;;347161;28;89578;-92
2022/10/19 00:31:28;;;;;;;;;;;16.70;99.90;16.70;100232.00;;;;344795;28;83547;-93
2022/10/19 00:31:40;;;;;;;;;;;16.70;99.90;16.70;100232.00;;;;346948;28;91796;-92
2022/10/19 00:31:52;;;;;;;;;;;16.70;99.90;16.70;100233.00;;;;346026;28;83717;-93
2022/10/19 00:32:03;;;;;;;;;;;16.70;99.90;16.90;100236.00;;;;344198;28;92958;-92
2022/10/19 00:32:15;;;;;;;;;;;16.70;99.90;17.00;100231.00;;;;344926;28;82400;-93
2022/10/19 00:32:27;;;;;;;;;;;16.70;99.90;17.10;100233.00;;;;345984;28;91437;-92
2022/10/19 00:32:39;;;;;;;;;;;16.70;99.90;17.00;100236.00;;;;343421;28;83570;-93
2022/10/19 00:32:50;;;;;;;;;;;16.70;99.90;16.90;100230.00;;;;343067;28;90772;-93
2022/10/19 00:33:03;;;;;;;;;;;16.70;99.90;16.90;100237.00;;;;346221;28;84353;-92
2022/10/19 00:33:20;;;;;;;;;;;16.70;99.90;16.90;100220.00;;;;345586;28;90525;-93
2022/10/19 00:33:32;;;;;;;;;;;16.70;99.90;16.90;100226.00;;;;343541;28;83439;-93
2022/10/19 00:33:45;;;;;;;;;;;16.70;99.90;16.90;100229.00;;;;344463;28;90138;-93
2022/10/19 00:33:57;;;;;;;;;;;16.70;99.90;16.90;100237.00;;;;346289;28;83367;-93
2022/10/19 00:34:09;;;;;;;;;;;16.70;99.90;17.00;100234.00;;;;344322;28;91543;-93
2022/10/19 00:34:21;;;;;;;;;;;16.70;99.90;17.00;100239.00;;;;347623;28;83378;-92
2022/10/19 00:34:33;;;;;;;;;;;16.70;99.90;17.00;100231.00;;;;345803;28;91903;-93
2022/10/19 00:34:44;;;;;;;;;;;16.70;99.90;16.90;100237.00;;;;346214;28;82508;-92
2022/10/19 00:34:56;;;;;;;;;;;16.70;99.90;16.80;100238.00;;;;345484;28;90584;-92
2022/10/19 00:35:08;;;;;;;;;;;16.70;99.90;16.80;100230.00;;;;342195;28;83251;-93
2022/10/19 00:35:20;;;;;;;;;;;16.70;99.90;16.80;100226.00;;;;345845;28;91233;-92
2022/10/19 00:35:31;;;;;;;;;;;16.70;99.90;16.90;100233.00;;;;344815;28;83530;-92
2022/10/19 00:35:43;;;;;;;;;;;16.70;99.90;16.80;100224.00;;;;345893;28;89782;-93
2022/10/19 00:35:55;;;;;;;;;;;16.70;99.90;16.80;100232.00;;;;347614;28;83461;-92
2022/10/19 00:36:17;;;;;;;;;;;16.70;99.90;16.90;100233.00;;;;346968;28;91454;-93
2022/10/19 00:36:30;;;;;;;;;;;16.60;99.90;16.90;100236.00;;;;347150;28;84190;-93
2022/10/19 00:36:42;;;;;;;;;;;16.70;99.90;16.90;100225.00;;;;344273;28;90763;-93
2022/10/19 00:36:54;;;;;;;;;;;16.60;99.90;16.90;100225.00;;;;344771;28;83470;-93
2022/10/19 00:37:05;;;;;;;;;;;16.60;99.90;16.90;100220.00;;;;345887;28;90205;-93
2022/10/19 00:37:17;;;;;;;;;;;16.60;99.90;16.90;100228.00;;;;347708;28;83323;-93
2022/10/19 00:37:30;;;;;;;;;;;16.70;99.90;17.00;100224.00;;;;344434;28;91694;-93
2022/10/19 00:37:42;;;;;;;;;;;16.70;99.90;17.00;100233.00;;;;345969;28;83590;-93
2022/10/19 00:37:54;;;;;;;;;;;16.70;99.90;17.00;100227.00;;;;344278;28;89616;-93
2022/10/19 00:38:06;;;;;;;;;;;16.70;99.90;16.90;100236.00;;;;346218;28;83436;-93
2022/10/19 00:38:18;;;;;;;;;;;16.60;99.90;17.00;100237.00;;;;347090;28;91184;-92
2022/10/19 00:38:30;;;;;;;;;;;16.70;99.90;16.90;100232.00;;;;347484;28;83501;-93
2022/10/19 00:38:42;;;;;;;;;;;16.70;99.90;16.80;100229.00;;;;347364;28;90210;-93
2022/10/19 00:38:54;;;;;;;;;;;16.70;99.90;16.70;100228.00;;;;346209;28;83550;-93
2022/10/19 00:39:07;;;;;;;;;;;16.70;99.90;16.70;100225.00;;;;344537;28;90217;-93
2022/10/19 00:39:19;;;;;;;;;;;16.60;99.90;16.80;100228.00;;;;347693;28;83380;-93
2022/10/19 00:39:31;;;;;;;;;;;16.60;99.90;16.90;100229.00;;;;347202;28;90472;-93
2022/10/19 00:39:43;;;;;;;;;;;16.70;99.90;16.90;100231.00;;;;348682;27;82647;-93
2022/10/19 00:39:54;;;;;;;;;;;16.60;99.90;16.80;100228.00;;;;347251;28;91317;-93
2022/10/19 00:40:07;;;;;;;;;;;16.60;99.90;17.00;100232.00;;;;346254;28;83472;-93
2022/10/19 00:40:18;;;;;;;;;;;16.60;99.90;17.00;100233.00;;;;345556;28;91658;-93
2022/10/19 00:40:36;;;;;;;;;;;16.60;99.90;17.00;100229.00;;;;346295;28;82599;-93
2022/10/19 00:40:48;;;;;;;;;;;16.70;99.90;17.00;100233.00;;;;347223;28;91218;-92
2022/10/19 00:41:01;;;;;;;;;;;16.70;99.90;17.00;100229.00;;;;346120;28;83582;-93
2022/10/19 00:41:13;;;;;;;;;;;16.70;99.90;17.00;100230.00;;;;343059;28;91867;-92
2022/10/19 00:41:27;;;;;;;;;;;16.70;99.90;16.90;100232.00;;;;346269;28;83369;-92
2022/10/19 00:41:39;;;;;;;;;;;16.70;99.90;16.90;100225.00;;;;344295;28;90592;-93
2022/10/19 00:41:51;;;;;;;;;;;16.70;99.90;16.90;100225.00;;;;349021;27;83535;-92
2022/10/19 00:42:02;;;;;;;;;;;16.70;99.90;16.90;100230.00;;;;347242;28;91529;-92
2022/10/19 00:42:14;;;;;;;;;;;16.70;99.90;16.90;100223.00;;;;344818;28;82438;-92
2022/10/19 00:42:26;;;;;;;;;;;16.70;99.90;16.80;100221.00;;;;346843;28;91736;-92
2022/10/19 00:42:38;;;;;;;;;;;16.70;99.90;16.80;100221.00;;;;347403;28;83500;-93
2022/10/19 00:42:56;;;;;;;;;;;16.60;99.90;16.80;100224.00;;;;345603;28;90608;-92
2022/10/19 00:43:22;;;;;;;;;;;16.60;99.90;16.80;100228.00;;;;347747;28;82541;-93
2022/10/19 00:43:56;;;;;;;;;;;16.60;99.90;16.80;100221.00;;;;345796;28;90448;-92
2022/10/19 00:44:11;;;;;;;;;;;16.60;99.90;16.80;100221.00;;;;345972;28;83578;-93
2022/10/19 00:44:28;;;;;;;;;;;16.60;99.90;16.90;100222.00;;;;345639;28;89457;-93
2022/10/19 00:44:43;;;;;;;;;;;16.60;99.90;16.80;100209.00;;;;345929;28;83582;-92
2022/10/19 00:44:59;;;;;;;;;;;16.60;99.90;16.80;100222.00;;;;345782;28;91661;-93
2022/10/19 00:45:16;;;;;;;;;;;16.60;99.90;16.80;100214.00;;;;346332;28;82461;-92
2022/10/19 00:45:27;;;;;;;;;;;16.60;99.90;16.90;100222.00;;;;347016;28;91243;-93
2022/10/19 00:45:39;;;;;;;;;;;16.60;99.90;16.90;100217.00;;;;344742;28;83503;-93
2022/10/19 00:45:51;;;;;;;;;;;16.60;99.90;16.90;100221.00;;;;345649;28;91084;-92
2022/10/19 00:46:03;;;;;;;;;;;16.60;99.90;16.80;100210.00;;;;346230;28;83689;-93
2022/10/19 00:46:14;;;;;;;;;;;16.60;99.90;16.70;100219.00;;;;345674;28;91647;-92
2022/10/19 00:46:28;;;;;;;;;;;16.60;99.90;16.70;100217.00;;;;346247;28;82596;-92
2022/10/19 00:46:41;;;;;;;;;;;16.60;99.90;16.60;100219.00;;;;344490;28;91212;-93
2022/10/19 00:46:53;;;;;;;;;;;16.60;99.90;16.70;100216.00;;;;343342;28;83500;-92
2022/10/19 00:47:06;;;;;;;;;;;16.60;99.90;16.70;100206.00;;;;345795;28;91524;-92
2022/10/19 00:47:17;;;;;;;;;;;16.60;99.90;16.70;100211.00;;;;344666;28;82612;-93
2022/10/19 00:47:29;;;;;;;;;;;16.60;99.90;16.70;100209.00;;;;345769;28;91795;-92
2022/10/19 00:47:41;;;;;;;;;;;16.50;99.90;16.70;100213.00;;;;347577;28;82522;-93
2022/10/19 00:47:53;;;;;;;;;;;16.60;99.90;16.70;100210.00;;;;345863;28;91385;-92
2022/10/19 00:48:05;;;;;;;;;;;16.50;99.90;16.70;100211.00;;;;348806;27;82632;-93
2022/10/19 00:48:30;;;;;;;;;;;16.60;99.90;16.60;100223.00;;;;342707;28;90682;-92
2022/10/19 00:48:42;;;;;;;;;;;16.50;99.90;16.60;100213.00;;;;346117;28;83478;-93
2022/10/19 00:48:59;;;;;;;;;;;16.50;99.90;16.60;100216.00;;;;345701;28;92118;-93
2022/10/19 00:49:20;;;;;;;;;;;16.50;99.90;16.60;100211.00;;;;344791;28;82610;-92
2022/10/19 00:49:34;;;;;;;;;;;16.50;99.90;16.70;100215.00;;;;345720;28;91359;-93
2022/10/19 00:49:45;;;;;;;;;;;16.50;99.90;16.70;100214.00;;;;344684;28;82601;-92
2022/10/19 00:49:57;;;;;;;;;;;16.50;99.90;16.80;100213.00;;;;345569;28;92472;-93
2022/10/19 00:50:09;;;;;;;;;;;16.50;99.90;16.70;100215.00;;;;346277;28;83403;-92
2022/10/19 00:50:21;;;;;;;;;;;16.50;99.90;16.60;100215.00;;;;344506;28;91301;-92
2022/10/19 00:50:33;;;;;;;;;;;16.50;99.90;16.60;100214.00;;;;346312;28;82463;-93
2022/10/19 00:50:45;;;;;;;;;;;16.50;99.90;16.60;100218.00;;;;345869;28;89868;-93
2022/10/19 00:50:57;;;;;;;;;;;16.50;99.90;16.60;100210.00;;;;346284;28;83380;-93
2022/10/19 00:51:09;;;;;;;;;;;16.50;99.90;16.50;100216.00;;;;348450;27;90404;-92
2022/10/19 00:51:21;;;;;;;;;;;16.50;99.90;16.50;100216.00;;;;346161;28;82560;-92
2022/10/19 00:51:34;;;;;;;;;;;16.50;99.90;16.50;100214.00;;;;343034;28;90747;-92
2022/10/19 00:51:47;;;;;;;;;;;16.50;99.90;16.50;100216.00;;;;347647;28;83511;-92
2022/10/19 00:52:04;;;;;;;;;;;16.50;99.90;16.50;100211.00;;;;347167;28;92597;-93
2022/10/19 00:52:18;;;;;;;;;;;16.40;99.90;16.50;100218.00;;;;344607;28;82641;-92
2022/10/19 00:52:30;;;;;;;;;;;16.50;99.90;16.50;100216.00;;;;344485;28;89081;-93
2022/10/19 00:52:42;;;;;;;;;;;16.50;99.90;16.60;100215.00;;;;347524;28;83581;-93
2022/10/19 00:52:54;;;;;;;;;;;16.40;99.90;16.60;100212.00;;;;344234;28;90626;-93
2022/10/19 00:53:05;;;;;;;;;;;16.40;99.90;16.60;100212.00;;;;347267;28;82585;-93
2022/10/19 00:53:17;;;;;;;;;;;16.40;99.90;16.60;100221.00;;;;345675;28;89755;-93
2022/10/19 00:53:29;;;;;;;;;;;16.50;99.90;16.70;100203.00;;;;346044;28;83516;-92
2022/10/19 00:53:41;;;;;;;;;;;16.40;99.90;16.70;100208.00;;;;345805;28;91569;-92
2022/10/19 00:53:53;;;;;;;;;;;16.50;99.90;16.80;100209.00;;;;346308;28;82776;-93
2022/10/19 00:54:05;;;;;;;;;;;16.40;99.90;16.80;100212.00;;;;343071;28;91430;-93
2022/10/19 00:54:17;;;;;;;;;;;16.40;99.90;16.80;100216.00;;;;344813;28;83532;-92
2022/10/19 00:54:30;;;;;;;;;;;16.40;99.90;16.80;100204.00;;;;345902;28;90903;-92
2022/10/19 00:54:43;;;;;;;;;;;16.40;99.90;16.70;100215.00;;;;346270;28;83482;-93
2022/10/19 00:54:55;;;;;;;;;;;16.40;99.90;16.70;100218.00;;;;345843;28;90457;-93
2022/10/19 00:55:07;;;;;;;;;;;16.40;99.90;16.60;100206.00;;;;346108;28;83482;-93
2022/10/19 00:55:19;;;;;;;;;;;16.40;99.90;16.60;100214.00;;;;344188;28;90684;-92
2022/10/19 00:55:31;;;;;;;;;;;16.40;99.90;16.50;100213.00;;;;344788;28;83344;-93
2022/10/19 00:55:42;;;;;;;;;;;16.50;99.90;16.50;100215.00;;;;343054;28;91479;-93
2022/10/19 00:55:54;;;;;;;;;;;16.40;99.90;16.60;100207.00;;;;344863;28;83514;-93
2022/10/19 00:56:09;;;;;;;;;;;16.40;99.90;16.50;100218.00;;;;345571;28;92010;-93
2022/10/19 00:56:20;;;;;;;;;;;16.40;99.90;16.60;100215.00;;;;346193;28;83469;-93
2022/10/19 00:56:32;;;;;;;;;;;16.50;99.90;16.60;100214.00;;;;345883;28;91422;-93
2022/10/19 00:56:45;;;;;;;;;;;16.40;99.90;16.60;100213.00;;;;344796;28;83477;-93
2022/10/19 00:56:57;;;;;;;;;;;16.40;99.90;16.60;100210.00;;;;343061;28;90136;-93
2022/10/19 00:57:09;;;;;;;;;;;16.40;99.90;16.60;100227.00;;;;343578;28;82521;-93
2022/10/19 00:57:20;;;;;;;;;;;16.40;99.90;16.50;100208.00;;;;345755;28;91534;-93
2022/10/19 00:57:32;;;;;;;;;;;16.40;99.90;16.60;100214.00;;;;344807;28;82560;-93
2022/10/19 00:57:44;;;;;;;;;;;16.40;99.90;16.60;100211.00;;;;343026;28;91329;-93
2022/10/19 00:57:56;;;;;;;;;;;16.40;99.90;16.60;100216.00;;;;347721;28;83325;-92
2022/10/19 00:58:07;;;;;;;;;;;16.40;99.90;16.60;100219.00;;;;344290;28;92183;-93
2022/10/19 00:58:19;;;;;;;;;;;16.40;99.90;16.60;100219.00;;;;344879;28;83550;-93
2022/10/19 00:58:31;;;;;;;;;;;16.40;99.90;16.60;100214.00;;;;344522;28;90308;-93
2022/10/19 00:58:43;;;;;;;;;;;16.40;99.90;16.60;100213.00;;;;343582;28;83372;-93
2022/10/19 00:58:54;;;;;;;;;;;16.40;99.90;16.60;100216.00;;;;344422;28;91229;-92
2022/10/19 00:59:06;;;;;;;;;;;16.40;99.90;16.60;100213.00;;;;346072;28;82537;-93
2022/10/19 00:59:19;;;;;;;;;;;16.40;99.90;16.70;100215.00;;;;347138;28;91292;-92
2022/10/19 00:59:31;;;;;;;;;;;16.40;99.90;16.60;100218.00;;;;344853;28;83473;-93
2022/10/19 00:59:43;;;;;;;;;;;16.40;99.90;16.60;100211.00;;;;345806;28;91134;-93
2022/10/19 00:59:55;;;;;;;;;;;16.40;99.90;16.60;100205.00;;;;346062;28;83495;-92
2022/10/19 01:00:07;;;;;;;;;;;16.40;99.90;16.70;100206.00;;;;345732;28;92091;-92
2022/10/19 01:00:19;;;;;;;;;;;16.40;99.90;16.70;100216.00;;;;344782;28;83521;-92
2022/10/19 01:00:32;;;;;;;;;;;16.40;99.90;16.70;100214.00;;;;343040;28;91487;-93
2022/10/19 01:00:44;;;;;;;;;;;16.40;99.90;16.80;100214.00;;;;343543;28;83278;-93
2022/10/19 01:00:57;;;;;;;;;;;16.40;99.90;16.80;100210.00;;;;345785;28;91288;-93
2022/10/19 01:01:12;;;;;;;;;;;16.40;99.90;16.80;100213.00;;;;346336;28;82465;-93
2022/10/19 01:01:24;;;;;;;;;;;16.40;99.90;16.80;100220.00;;;;344463;28;90697;-93
2022/10/19 01:01:35;;;;;;;;;;;16.40;99.90;16.80;100206.00;;;;346177;28;82393;-92
2022/10/19 01:01:47;;;;;;;;;;;16.40;99.90;16.80;100207.00;;;;344214;28;90433;-93